Time;durP1;ratioP1;P1;durP2;ratioP2;P2;SDS_P1;SDS_P2;PMS_P1;PMS_P2;Temp;Humidity;BMP_temperature;BMP_pressure;BME280_temperature;BME280_humidity;BME280_pressure;Samples;Min_cycle;Max_cycle;Signal;HPM_P1;HPM_P2
2021/04/06 00:03:37;;;;;;;6.92;2.80;;;;;;;1.83;74.77;99109.89;2766862;85;21563;-65
2021/04/06 00:07:43;;;;;;;5.20;2.33;;;;;;;1.82;74.75;99131.81;2712457;87;21606;-66
2021/04/06 00:11:48;;;;;;;6.05;2.58;;;;;;;1.85;75.14;99144.72;2732212;87;21173;-67
2021/04/06 00:15:51;;;;;;;24.72;4.30;;;;;;;1.83;75.56;99150.53;2734246;87;21166;-66
2021/04/06 00:20:04;;;;;;;2.40;2.12;;;;;;;1.84;75.35;99150.91;2754691;85;21106;-65
2021/04/06 00:24:22;;;;;;;7.15;2.83;;;;;;;1.91;75.50;99150.50;2779810;85;21133;-67
2021/04/06 00:28:32;;;;;;;5.12;2.05;;;;;;;1.94;75.22;99155.55;2734355;87;21161;-67
2021/04/06 00:32:37;;;;;;;5.35;2.77;;;;;;;1.95;75.20;99150.67;2779646;85;21148;-65
2021/04/06 00:36:41;;;;;;;4.47;2.83;;;;;;;1.99;75.03;99153.49;2734403;87;21225;-66
2021/04/06 00:40:48;;;;;;;3.30;2.47;;;;;;;2.00;75.08;99161.73;2779850;85;21141;-67
2021/04/06 00:44:58;;;;;;;5.72;2.87;;;;;;;1.98;75.26;99157.05;2734106;87;21610;-66
2021/04/06 00:49:04;;;;;;;6.45;2.50;;;;;;;1.96;75.30;99147.96;2780005;85;21137;-66
2021/04/06 00:53:08;;;;;;;2.77;2.00;;;;;;;1.99;75.29;99161.36;2710424;87;21145;-66
2021/04/06 00:57:13;;;;;;;7.85;2.05;;;;;;;2.00;75.21;99166.98;2779771;85;21153;-66
2021/04/06 01:01:27;;;;;;;10.00;2.45;;;;;;;2.03;75.20;99163.30;2734278;87;21125;-67
2021/04/06 01:05:35;;;;;;;2.83;2.22;;;;;;;2.05;75.06;99165.34;2828091;84;21177;-66
2021/04/06 01:09:57;;;;;;;4.25;1.98;;;;;;;2.03;75.24;99174.64;2823988;84;21149;-67
2021/04/06 01:14:00;;;;;;;5.42;3.08;;;;;;;2.01;74.60;99166.03;2752980;85;21137;-66
2021/04/06 01:18:04;;;;;;;7.42;2.12;;;;;;;2.04;74.97;99172.39;2780035;85;21639;-67
2021/04/06 01:22:15;;;;;;;8.85;2.35;;;;;;;2.06;75.10;99171.82;2759128;85;21183;-67
2021/04/06 01:26:18;;;;;;;8.40;2.52;;;;;;;2.04;75.16;99185.51;2780024;85;21572;-66
2021/04/06 01:30:45;;;;;;;3.65;1.95;;;;;;;2.01;75.13;99183.09;2780132;85;21619;-66
2021/04/06 01:34:50;;;;;;;5.80;2.12;;;;;;;1.98;75.30;99193.78;2693701;87;21163;-66
2021/04/06 01:38:53;;;;;;;4.12;2.27;;;;;;;1.95;75.38;99193.95;2737840;87;21127;-66
2021/04/06 01:42:57;;;;;;;3.92;2.22;;;;;;;1.92;75.10;99201.56;2737685;87;21100;-66
2021/04/06 01:47:25;;;;;;;3.87;2.15;;;;;;;1.91;75.32;99199.02;2737600;86;21171;-65
2021/04/06 01:51:28;;;;;;;8.63;3.52;;;;;;;1.90;75.30;99214.39;2756313;86;21604;-65
2021/04/06 01:55:36;;;;;;;2.20;1.47;;;;;;;1.91;75.08;99219.55;2721346;87;21169;-67
2021/04/06 01:59:55;;;;;;;5.37;2.30;;;;;;;1.95;75.19;99228.05;2721285;87;21133;-67
2021/04/06 02:04:07;;;;;;;4.70;2.15;;;;;;;1.96;75.44;99227.11;2756509;86;21111;-66
2021/04/06 02:08:10;;;;;;;6.97;2.08;;;;;;;1.92;75.22;99226.93;2720184;87;21153;-66
2021/04/06 02:12:09;;;;;;;8.18;1.92;;;;;;;1.96;74.79;99233.20;2721349;87;21570;-67
2021/04/06 02:16:13;;;;;;;4.53;1.95;;;;;;;1.97;74.47;99237.52;2756183;85;21141;-67
2021/04/06 02:20:29;;;;;;;9.03;3.00;;;;;;;1.98;74.64;99235.26;2721213;87;21581;-67
2021/04/06 02:24:47;;;;;;;5.47;2.90;;;;;;;1.97;74.30;99248.00;2721561;86;21161;-65
2021/04/06 02:28:53;;;;;;;6.85;2.65;;;;;;;1.95;74.61;99238.54;2756192;86;21130;-65
2021/04/06 02:33:02;;;;;;;2.27;1.27;;;;;;;1.95;74.57;99242.02;2755049;85;21160;-66
2021/04/06 02:37:09;;;;;;;2.08;1.50;;;;;;;1.95;74.62;99238.54;2721293;87;21131;-66
2021/04/06 02:41:16;;;;;;;4.65;1.47;;;;;;;1.90;74.50;99244.09;2721680;87;21119;-65
2021/04/06 02:45:28;;;;;;;5.15;1.75;;;;;;;1.87;74.50;99242.12;2732480;87;21612;-66
2021/04/06 02:49:32;;;;;;;4.28;1.67;;;;;;;1.83;74.44;99236.22;2732993;87;21151;-67
2021/04/06 02:53:38;;;;;;;7.30;1.70;;;;;;;1.76;74.54;99250.17;2732927;85;21167;-67
2021/04/06 02:57:46;;;;;;;3.83;1.57;;;;;;;1.73;74.47;99233.81;2732132;87;21122;-67
2021/04/06 03:01:54;;;;;;;4.22;2.12;;;;;;;1.70;74.60;99231.76;2732902;87;21608;-66
2021/04/06 03:06:10;;;;;;;3.83;1.42;;;;;;;1.72;74.37;99248.69;2732670;87;21207;-66
2021/04/06 03:10:20;;;;;;;7.10;2.42;;;;;;;1.74;74.36;99232.39;2688527;88;21157;-66
2021/04/06 03:14:26;;;;;;;4.20;1.75;;;;;;;1.77;74.46;99240.09;2727415;87;21133;-67
2021/04/06 03:18:38;;;;;;;;;;;;;;;1.74;74.06;99227.14;2732922;87;21132;-67
2021/04/06 03:22:49;;;;;;;5.00;2.80;;;;;;;1.69;74.25;99230.07;2730773;87;20235;-66
2021/04/06 03:26:52;;;;;;;8.18;3.05;;;;;;;1.61;74.46;99231.48;2727800;87;21117;-66
2021/04/06 03:31:08;;;;;;;2.08;1.40;;;;;;;1.51;74.82;99219.41;2704952;86;21626;-66
2021/04/06 03:35:12;;;;;;;2.80;1.57;;;;;;;1.44;75.23;99226.80;2702588;88;21669;-67
2021/04/06 03:39:16;;;;;;;2.95;2.08;;;;;;;1.39;75.37;99222.31;2705137;88;21159;-66
2021/04/06 03:43:21;;;;;;;4.30;1.60;;;;;;;1.37;75.56;99241.19;2705208;86;21127;-67
2021/04/06 03:47:24;;;;;;;3.25;1.82;;;;;;;1.32;75.68;99240.63;2704939;88;21624;-67
2021/04/06 03:51:29;;;;;;;3.45;2.33;;;;;;;1.31;75.69;99216.68;2707418;86;21183;-68
2021/04/06 03:55:33;;;;;;;7.75;3.15;;;;;;;1.27;75.44;99224.73;2732098;87;21587;-67
2021/04/06 03:59:38;;;;;;;6.27;2.77;;;;;;;1.25;75.17;99222.67;2688316;88;21136;-67
2021/04/06 04:03:44;;;;;;;5.67;3.20;;;;;;;1.27;75.23;99206.39;2718931;87;21162;-67
2021/04/06 04:07:48;;;;;;;3.83;2.27;;;;;;;1.26;74.89;99210.41;2727798;87;21125;-69
2021/04/06 04:11:51;;;;;;;11.68;2.45;;;;;;;1.26;75.15;99212.56;2685804;88;21111;-69
2021/04/06 04:15:57;;;;;;;5.60;2.85;;;;;;;1.27;75.08;99219.48;2731612;87;21161;-69
2021/04/06 04:20:10;;;;;;;5.33;2.57;;;;;;;1.26;74.97;99198.61;2709897;87;21195;-69
2021/04/06 04:24:25;;;;;;;5.65;3.33;;;;;;;1.35;75.12;99220.34;3128630;76;22870;-69
2021/04/06 04:28:32;;;;;;;5.75;3.25;;;;;;;1.24;75.09;99211.82;3070169;77;21144;-68
2021/04/06 04:32:37;;;;;;;5.15;2.67;;;;;;;1.32;74.98;99224.46;3037351;77;21158;-68
2021/04/06 04:36:40;;;;;;;10.95;4.87;;;;;;;1.34;74.55;99203.39;3057596;76;21126;-68
2021/04/06 04:40:54;;;;;;;7.28;4.10;;;;;;;1.39;74.76;99226.25;2947200;80;21229;-69
2021/04/06 04:45:19;;;;;;;;;;;;;;;1.41;74.14;99223.89;2958603;80;21152;-67
2021/04/06 04:49:23;;;;;;;5.30;3.40;;;;;;;1.68;74.43;99226.22;2784521;84;20156;-67
2021/04/06 04:53:30;;;;;;;5.37;2.67;;;;;;;2.11;72.85;99231.39;2787635;84;21160;-67
2021/04/06 04:57:35;;;;;;;4.28;1.65;;;;;;;2.21;71.60;99230.33;2783980;85;21595;-67
2021/04/06 05:01:39;;;;;;;5.43;2.27;;;;;;;2.03;71.64;99236.30;2779820;85;21156;-68
2021/04/06 05:05:45;;;;;;;6.28;1.92;;;;;;;1.83;72.08;99234.91;2784537;85;21144;-68
2021/04/06 05:09:51;;;;;;;3.70;2.22;;;;;;;1.68;72.25;99235.40;2786736;85;21153;-67
2021/04/06 05:13:56;;;;;;;6.25;2.90;;;;;;;1.59;72.62;99244.67;2783712;84;21156;-68
2021/04/06 05:18:02;;;;;;;5.60;2.62;;;;;;;1.54;72.56;99248.05;2777191;85;21185;-68
2021/04/06 05:22:07;;;;;;;5.50;3.20;;;;;;;1.56;72.62;99252.24;2783432;85;21137;-68
2021/04/06 05:26:12;;;;;;;3.67;2.60;;;;;;;1.85;72.83;99247.45;2783187;85;21577;-68
2021/04/06 05:30:17;;;;;;;5.47;2.90;;;;;;;2.46;71.80;99256.33;2784954;84;21185;-68
2021/04/06 05:34:23;;;;;;;2.47;2.27;;;;;;;3.11;70.10;99244.17;2771795;84;21624;-69
2021/04/06 05:38:29;;;;;;;7.67;2.92;;;;;;;3.68;67.40;99241.21;2775067;85;21128;-68
2021/04/06 05:42:35;;;;;;;4.65;3.75;;;;;;;4.11;66.38;99230.76;2775276;85;21153;-69
2021/04/06 05:46:44;;;;;;;5.33;2.65;;;;;;;4.41;64.62;99239.53;2749829;85;21598;-68
2021/04/06 05:50:50;;;;;;;6.03;2.72;;;;;;;4.54;63.69;99237.33;2767289;86;21579;-69
2021/04/06 05:54:57;;;;;;;6.65;3.52;;;;;;;4.53;62.64;99229.89;2767358;86;21162;-68
2021/04/06 05:59:01;;;;;;;4.95;3.08;;;;;;;4.56;63.41;99234.93;2734395;86;21175;-68
2021/04/06 06:03:07;;;;;;;10.50;3.60;;;;;;;4.75;63.04;99238.02;2699693;87;21586;-69
2021/04/06 06:07:12;;;;;;;3.20;2.50;;;;;;;4.84;62.58;99235.99;2699835;88;21573;-68
2021/04/06 06:11:15;;;;;;;5.92;3.60;;;;;;;4.71;61.27;99229.00;2699211;88;22158;-68
2021/04/06 06:15:20;;;;;;;10.63;3.08;;;;;;;4.77;62.32;99249.27;2699104;88;21199;-68
2021/04/06 06:19:32;;;;;;;3.80;2.33;;;;;;;4.81;62.34;99253.36;2699021;87;21172;-67
2021/04/06 06:23:40;;;;;;;12.33;4.15;;;;;;;4.86;61.86;99250.75;2699051;87;21146;-67
2021/04/06 06:27:46;;;;;;;6.33;3.50;;;;;;;4.94;62.11;99254.59;2738704;86;21575;-66
2021/04/06 06:31:53;;;;;;;4.07;2.63;;;;;;;4.93;61.77;99246.33;2722476;86;21126;-66
2021/04/06 06:51:21;;;;;;;4.75;2.67;;;;;;;5.47;61.43;99246.18;2890668;79;21996;-64
2021/04/06 06:55:47;;;;;;;6.20;3.47;;;;;;;5.17;61.19;99257.28;2829843;83;21538;-63
2021/04/06 06:59:49;;;;;;;4.45;3.08;;;;;;;4.71;61.81;99257.97;2738150;86;21140;-63
2021/04/06 07:04:12;;;;;;;11.25;3.83;;;;;;;4.39;62.70;99246.72;2737547;87;21192;-62
2021/04/06 07:08:39;;;;;;;4.95;2.30;;;;;;;4.10;62.98;99248.81;2738356;87;21180;-63
2021/04/06 07:12:50;;;;;;;4.12;2.60;;;;;;;3.82;63.14;99251.61;2738138;87;21133;-64
2021/04/06 07:16:59;;;;;;;7.17;3.17;;;;;;;3.74;64.23;99248.69;2692807;87;21585;-64
2021/04/06 07:21:04;;;;;;;5.30;3.45;;;;;;;3.66;64.09;99253.63;2685529;87;21204;-64
2021/04/06 07:25:09;;;;;;;5.22;4.35;;;;;;;3.56;64.09;99254.28;2685145;87;21595;-64
2021/04/06 07:29:14;;;;;;;10.72;4.08;;;;;;;3.48;64.30;99267.10;2685644;88;21216;-65
2021/04/06 07:33:19;;;;;;;7.85;4.87;;;;;;;3.46;64.89;99259.80;2685285;87;21129;-65
2021/04/06 07:37:23;;;;;;;4.05;3.37;;;;;;;3.45;63.96;99268.63;2685080;88;21160;-63
2021/04/06 07:41:32;;;;;;;5.10;3.72;;;;;;;3.49;64.98;99266.16;2713942;86;21200;-64
2021/04/06 07:45:38;;;;;;;13.70;3.95;;;;;;;3.59;64.36;99262.42;2669668;88;21149;-65
2021/04/06 07:49:41;;;;;;;4.28;3.17;;;;;;;3.66;64.42;99278.62;2664987;89;21155;-63
2021/04/06 07:53:57;;;;;;;6.62;2.80;;;;;;;3.78;64.12;99270.34;2665977;89;21123;-65
2021/04/06 07:58:00;;;;;;;4.87;3.15;;;;;;;3.97;62.98;99260.70;2678433;87;21151;-63
2021/04/06 08:02:11;;;;;;;2.60;2.35;;;;;;;4.13;62.46;99253.86;2689086;88;21604;-64
2021/04/06 08:06:27;;;;;;;4.80;2.75;;;;;;;4.18;61.78;99256.17;2662927;88;21116;-64
2021/04/06 08:10:33;;;;;;;5.42;2.85;;;;;;;4.09;61.92;99253.22;2689823;88;21116;-64
2021/04/06 08:14:40;;;;;;;2.70;2.27;;;;;;;4.08;62.91;99250.23;2689585;88;21154;-63
2021/04/06 08:18:55;;;;;;;8.40;3.12;;;;;;;4.32;63.05;99262.57;2689644;88;21163;-64
2021/04/06 08:23:09;;;;;;;5.35;2.55;;;;;;;4.86;62.43;99251.20;2689210;88;21222;-64
2021/04/06 08:27:38;;;;;;;16.65;2.90;;;;;;;5.22;62.53;99245.44;3040881;77;22942;-64
2021/04/06 08:31:41;;;;;;;4.67;2.58;;;;;;;5.34;60.48;99245.47;2974305;78;21577;-63
2021/04/06 08:35:52;;;;;;;4.78;2.33;;;;;;;5.50;59.22;99226.66;2967708;80;21101;-63
2021/04/06 08:39:56;;;;;;;4.37;2.55;;;;;;;5.34;59.00;99232.28;2956878;80;21112;-62
2021/04/06 08:44:05;;;;;;;2.83;2.45;;;;;;;5.16;60.87;99236.69;2967124;78;21075;-62
2021/04/06 08:48:09;;;;;;;3.75;2.40;;;;;;;5.03;59.86;99239.88;3001502;78;21546;-63
2021/04/06 08:52:15;;;;;;;4.10;2.33;;;;;;;4.99;60.45;99240.12;3002192;78;21125;-63
2021/04/06 08:56:27;;;;;;;2.80;2.52;;;;;;;4.95;59.25;99243.95;2997494;78;21159;-60
2021/04/06 09:00:30;;;;;;;7.60;3.35;;;;;;;4.92;60.28;99248.14;2989112;78;21543;-63
2021/04/06 09:04:38;;;;;;;5.67;3.47;;;;;;;4.82;62.26;99235.27;2973850;78;21132;-63
2021/04/06 09:08:55;;;;;;;4.53;3.05;;;;;;;4.74;60.61;99229.75;2990610;78;21148;-64
2021/04/06 09:12:58;;;;;;;3.20;2.75;;;;;;;4.71;60.33;99248.75;2998777;78;21089;-63
2021/04/06 09:17:02;;;;;;;2.72;1.75;;;;;;;5.00;59.25;99243.12;2998981;78;21575;-63
2021/04/06 09:21:07;;;;;;;3.37;1.72;;;;;;;5.06;57.73;99238.33;2993929;78;21609;-63
2021/04/06 09:25:24;;;;;;;4.47;2.33;;;;;;;4.96;56.87;99239.50;2968420;78;21581;-63
2021/04/06 09:29:34;;;;;;;3.17;2.30;;;;;;;5.23;57.57;99225.20;2988400;79;21082;-63
2021/04/06 09:33:38;;;;;;;3.58;3.27;;;;;;;5.64;57.74;99232.16;2971175;79;21125;-63
2021/04/06 09:37:42;;;;;;;5.90;2.98;;;;;;;5.80;59.09;99212.03;2991870;78;21149;-63
2021/04/06 09:41:45;;;;;;;7.00;3.30;;;;;;;5.86;58.52;99224.23;2986696;79;21226;-64
2021/04/06 09:45:51;;;;;;;8.48;6.37;;;;;;;5.84;60.08;99214.28;2995148;78;21547;-64
2021/04/06 09:49:55;;;;;;;3.67;3.33;;;;;;;5.96;57.33;99219.55;2930367;80;21094;-63
2021/04/06 09:53:59;;;;;;;4.45;3.37;;;;;;;6.24;58.77;99197.08;2937174;81;21077;-64
2021/04/06 09:58:03;;;;;;;7.17;3.60;;;;;;;6.37;57.74;99207.48;2934648;81;21177;-65
2021/04/06 10:02:10;;;;;;;6.47;2.72;;;;;;;6.52;57.11;99204.05;2927272;81;21094;-64
2021/04/06 10:06:14;;;;;;;3.92;3.00;;;;;;;6.71;57.31;99205.17;2925681;81;21648;-63
2021/04/06 10:10:27;;;;;;;10.13;3.30;;;;;;;6.42;54.71;99209.26;2927938;81;21093;-63
2021/04/06 10:14:30;;;;;;;4.70;3.62;;;;;;;6.19;57.43;99212.47;2910352;80;21109;-64
2021/04/06 10:18:43;;;;;;;6.40;3.98;;;;;;;6.41;57.59;99208.91;2900434;81;21105;-59
2021/04/06 10:22:57;;;;;;;3.60;3.30;;;;;;;6.66;58.99;99214.80;2918459;81;21113;-60
2021/04/06 10:27:20;;;;;;;7.92;3.42;;;;;;;6.74;58.01;99206.73;2956823;80;21132;-61
2021/04/06 10:31:26;;;;;;;3.47;2.67;;;;;;;6.55;55.92;99206.94;2955321;80;21094;-61
2021/04/06 10:35:33;;;;;;;4.83;3.10;;;;;;;6.46;55.91;99219.56;2938577;79;21593;-60
2021/04/06 10:39:42;;;;;;;3.52;2.95;;;;;;;6.29;56.62;99217.84;2903074;81;21763;-60
2021/04/06 10:43:52;;;;;;;3.45;2.15;;;;;;;6.39;57.95;99212.16;2959969;80;21140;-61
2021/04/06 10:48:16;;;;;;;8.10;3.52;;;;;;;6.48;55.44;99199.14;2955787;80;21097;-60
2021/04/06 10:52:23;;;;;;;3.80;3.12;;;;;;;6.33;56.83;99202.56;2950868;80;21069;-61
2021/04/06 10:56:42;;;;;;;6.62;3.90;;;;;;;6.41;57.16;99193.05;2914426;81;21077;-60
2021/04/06 11:00:45;;;;;;;2.95;2.70;;;;;;;6.61;57.43;99191.89;2969533;80;21094;-62
2021/04/06 11:04:48;;;;;;;5.87;3.92;;;;;;;6.91;55.42;99195.59;2910309;81;21997;-61
2021/04/06 11:08:53;;;;;;;4.58;2.22;;;;;;;6.91;54.16;99204.84;2890218;81;21188;-60
2021/04/06 11:12:56;;;;;;;8.18;4.10;;;;;;;7.03;55.90;99183.14;2961410;80;21551;-60
2021/04/06 11:17:05;;;;;;;3.85;3.35;;;;;;;7.21;56.85;99191.30;2951396;80;21105;-61
2021/04/06 11:21:10;;;;;;;5.28;4.42;;;;;;;7.54;55.16;99189.38;2914449;81;21570;-61
2021/04/06 11:25:14;;;;;;;7.17;4.35;;;;;;;7.33;54.66;99186.76;2963490;80;21136;-60
2021/04/06 11:29:21;;;;;;;3.27;3.00;;;;;;;7.35;56.15;99189.29;2911369;81;21125;-61
2021/04/06 11:33:24;;;;;;;4.40;3.22;;;;;;;7.09;54.01;99189.72;2957929;80;21502;-65
2021/04/06 11:37:27;;;;;;;7.40;3.35;;;;;;;6.80;54.61;99191.68;2955304;80;21129;-65
2021/04/06 11:41:30;;;;;;;3.35;3.05;;;;;;;6.90;57.28;99193.92;2954764;80;21163;-65
2021/04/06 11:45:33;;;;;;;4.90;4.10;;;;;;;7.32;55.47;99182.94;2905735;82;21137;-65
2021/04/06 11:49:37;;;;;;;6.42;3.00;;;;;;;7.54;56.13;99182.76;2961018;80;21515;-66
2021/04/06 11:53:41;;;;;;;3.55;3.22;;;;;;;7.41;55.16;99182.14;2906883;82;21102;-65
2021/04/06 11:57:46;;;;;;;4.92;3.40;;;;;;;7.16;54.37;99193.51;2960841;80;21106;-65
2021/04/06 12:01:50;;;;;;;4.28;3.10;;;;;;;7.41;55.55;99168.91;2906488;82;21555;-65
2021/04/06 12:05:53;;;;;;;5.83;3.85;;;;;;;7.58;53.61;99165.63;2960668;80;21153;-65
2021/04/06 12:09:58;;;;;;;5.62;3.92;;;;;;;7.65;55.24;99154.03;2906547;82;21543;-65
2021/04/06 12:14:01;;;;;;;4.55;3.42;;;;;;;7.63;55.13;99171.00;2960943;80;21142;-65
2021/04/06 12:18:05;;;;;;;3.98;3.58;;;;;;;7.70;55.39;99158.92;2906404;82;21566;-65
2021/04/06 12:22:08;;;;;;;3.95;3.65;;;;;;;7.55;55.42;99163.73;2960679;80;21093;-64
2021/04/06 12:26:13;;;;;;;3.98;3.42;;;;;;;7.31;53.19;99168.05;2888470;81;21109;-65
2021/04/06 12:30:17;;;;;;;10.10;3.35;;;;;;;7.02;53.74;99160.78;2914170;81;21101;-66
2021/04/06 12:34:21;;;;;;;3.70;3.37;;;;;;;7.18;55.09;99154.54;2855323;81;21139;-65
2021/04/06 12:38:23;;;;;;;4.20;3.77;;;;;;;7.21;52.87;99155.59;2863849;83;21143;-64
2021/04/06 12:42:27;;;;;;;4.53;4.12;;;;;;;7.33;54.78;99160.81;2864093;82;21529;-65
2021/04/06 12:46:30;;;;;;;4.03;3.42;;;;;;;7.52;55.83;99149.45;2864419;83;21099;-65
2021/04/06 12:50:33;;;;;;;3.92;2.75;;;;;;;7.38;54.02;99148.86;2864312;83;21154;-65
2021/04/06 12:54:36;;;;;;;2.85;2.50;;;;;;;7.41;52.69;99141.13;2864412;83;21070;-66
2021/04/06 12:58:39;;;;;;;3.10;2.55;;;;;;;7.64;52.02;99137.80;2864237;83;21091;-65
2021/04/06 13:02:44;;;;;;;3.42;3.17;;;;;;;7.88;51.34;99135.77;2862752;83;21088;-64
2021/04/06 13:06:47;;;;;;;3.35;2.65;;;;;;;8.04;51.98;99127.28;2864327;82;21560;-65
2021/04/06 13:10:52;;;;;;;6.47;2.95;;;;;;;8.14;52.08;99128.95;2864612;83;21059;-66
2021/04/06 13:14:55;;;;;;;2.87;2.67;;;;;;;8.26;51.96;99132.81;2864801;83;21494;-65
2021/04/06 13:19:01;;;;;;;3.85;3.08;;;;;;;8.42;52.24;99135.70;2864277;83;21059;-66
2021/04/06 13:23:04;;;;;;;3.30;2.87;;;;;;;8.43;51.59;99126.78;2864527;83;21115;-65
2021/04/06 13:27:07;;;;;;;3.25;2.30;;;;;;;8.34;51.13;99124.98;2863044;81;21533;-65
2021/04/06 13:31:11;;;;;;;3.12;2.45;;;;;;;8.05;51.54;99118.36;2961373;80;21570;-65
2021/04/06 13:35:15;;;;;;;5.97;2.50;;;;;;;7.88;51.31;99114.08;2882586;81;21106;-66
2021/04/06 13:39:20;;;;;;;3.40;2.92;;;;;;;7.98;53.48;99110.13;2910588;80;21117;-66
2021/04/06 13:43:44;;;;;;;8.33;5.95;;;;;;;8.26;51.78;99108.45;2945720;80;21149;-67
2021/04/06 13:47:56;;;;;;;3.95;2.92;;;;;;;8.31;49.27;99105.40;2947019;80;21129;-67
2021/04/06 13:51:59;;;;;;;4.90;2.90;;;;;;;8.51;51.21;99099.61;2941427;80;21187;-67
2021/04/06 13:56:04;;;;;;;3.50;3.08;;;;;;;8.71;49.72;99092.47;2937743;80;21172;-66
2021/04/06 14:00:14;;;;;;;6.47;3.62;;;;;;;8.75;50.16;99093.03;2944548;80;21149;-64
2021/04/06 14:04:17;;;;;;;3.45;2.62;;;;;;;8.95;49.03;99085.83;2945057;79;21105;-67
2021/04/06 14:08:21;;;;;;;2.10;1.92;;;;;;;9.11;49.10;99071.13;2868163;82;21110;-65
2021/04/06 14:12:24;;;;;;;3.25;2.77;;;;;;;9.13;48.57;99075.78;2960014;80;21137;-64
2021/04/06 14:16:29;;;;;;;5.55;3.10;;;;;;;9.14;49.60;99074.33;2906509;82;21078;-65
2021/04/06 14:20:35;;;;;;;3.47;2.75;;;;;;;9.26;47.73;99073.64;2947995;80;21535;-64
2021/04/06 14:24:38;;;;;;;2.60;2.08;;;;;;;9.44;49.12;99066.22;2946215;80;21544;-66
2021/04/06 14:28:42;;;;;;;3.00;2.25;;;;;;;9.59;48.51;99065.22;2934888;80;21519;-65
2021/04/06 14:32:47;;;;;;;5.70;3.33;;;;;;;9.54;47.86;99066.98;2942742;80;21115;-64
2021/04/06 14:36:50;;;;;;;2.67;2.42;;;;;;;9.51;47.41;99066.44;2934830;80;21083;-65
2021/04/06 14:40:56;;;;;;;2.95;2.52;;;;;;;9.48;47.66;99059.62;2941683;80;21167;-65
2021/04/06 14:44:59;;;;;;;3.83;2.77;;;;;;;9.09;48.46;99063.80;2933274;80;21555;-65
2021/04/06 14:49:03;;;;;;;2.77;2.17;;;;;;;8.91;49.89;99057.09;2954180;80;21562;-65
2021/04/06 14:53:08;;;;;;;4.08;2.72;;;;;;;8.78;49.53;99057.41;2928787;80;21086;-66
2021/04/06 14:57:12;;;;;;;4.45;3.52;;;;;;;8.67;49.31;99059.75;2943522;80;22342;-64
2021/04/06 15:01:15;;;;;;;2.62;2.42;;;;;;;8.59;49.22;99056.48;2931723;80;21176;-65
2021/04/06 15:05:20;;;;;;;4.17;3.08;;;;;;;8.59;48.86;99052.52;2889350;81;21114;-65
2021/04/06 15:09:26;;;;;;;6.67;2.80;;;;;;;8.52;48.90;99050.09;2901848;81;21144;-65
2021/04/06 15:13:31;;;;;;;3.65;2.98;;;;;;;8.34;48.76;99045.49;2929223;81;21117;-66
2021/04/06 15:17:34;;;;;;;5.85;3.05;;;;;;;8.19;49.33;99032.33;2928506;81;21121;-66
2021/04/06 15:21:57;;;;;;;4.10;3.40;;;;;;;8.47;50.60;99039.06;2943859;80;21139;-65
2021/04/06 15:26:04;;;;;;;3.02;2.65;;;;;;;8.78;49.32;99038.85;2903332;81;21172;-65
2021/04/06 15:30:08;;;;;;;7.87;3.10;;;;;;;9.00;49.97;99029.20;2891436;81;21113;-64
2021/04/06 15:34:11;;;;;;;4.08;3.15;;;;;;;8.85;49.51;99032.02;2899746;81;21646;-64
2021/04/06 15:38:19;;;;;;;3.37;2.17;;;;;;;8.50;49.50;99019.75;2894849;81;21148;-65
2021/04/06 15:42:23;;;;;;;3.02;2.70;;;;;;;8.35;47.90;99032.59;2898304;81;21117;-64
2021/04/06 15:46:26;;;;;;;3.47;2.72;;;;;;;8.15;49.62;99031.77;2910347;81;21133;-64
2021/04/06 15:50:36;;;;;;;5.62;3.25;;;;;;;7.91;49.94;99025.09;2947011;80;21127;-63
2021/04/06 15:54:40;;;;;;;3.17;2.33;;;;;;;7.76;50.92;99031.30;2942897;80;21090;-63
2021/04/06 15:58:43;;;;;;;6.53;3.22;;;;;;;7.78;51.34;99031.18;2944401;80;21114;-64
2021/04/06 16:02:49;;;;;;;8.55;3.20;;;;;;;7.85;52.67;99036.26;2949458;80;21137;-64
2021/04/06 16:06:52;;;;;;;4.23;2.27;;;;;;;7.68;57.51;99028.53;2955965;80;21081;-66
2021/04/06 16:10:56;;;;;;;3.92;3.52;;;;;;;7.17;58.77;99055.01;2955965;78;21593;-67
2021/04/06 16:14:59;;;;;;;5.42;3.27;;;;;;;6.89;60.20;99050.81;2939991;80;21134;-67
2021/04/06 16:19:03;;;;;;;3.50;2.65;;;;;;;6.71;62.26;99051.42;2900230;81;21170;-66
2021/04/06 16:23:09;;;;;;;4.10;3.45;;;;;;;6.78;60.31;99059.67;2905006;81;21571;-66
2021/04/06 16:27:12;;;;;;;5.33;3.33;;;;;;;6.83;59.69;99068.50;2888615;81;21642;-67
2021/04/06 16:31:15;;;;;;;3.87;2.42;;;;;;;6.81;60.57;99067.80;2876304;81;21168;-66
2021/04/06 16:35:17;;;;;;;5.47;2.00;;;;;;;6.59;61.28;99073.59;2884533;81;21184;-66
2021/04/06 16:39:20;;;;;;;5.35;2.27;;;;;;;6.43;62.67;99082.81;2968489;80;21142;-63
2021/04/06 16:43:25;;;;;;;3.35;3.08;;;;;;;6.27;63.20;99079.77;2959146;80;21611;-65
2021/04/06 16:47:28;;;;;;;4.75;2.50;;;;;;;6.08;63.69;99086.58;2959457;80;21591;-65
2021/04/06 16:51:31;;;;;;;4.12;2.35;;;;;;;5.89;64.62;99081.95;2935628;80;21479;-66
2021/04/06 16:55:34;;;;;;;2.60;2.40;;;;;;;5.68;64.89;99089.80;2911524;81;21153;-65
2021/04/06 16:59:37;;;;;;;5.03;3.08;;;;;;;5.41;65.31;99084.47;2911810;81;21149;-65
2021/04/06 17:03:41;;;;;;;5.33;3.12;;;;;;;5.22;65.94;99091.20;2934862;80;21177;-65
2021/04/06 17:07:44;;;;;;;4.70;3.87;;;;;;;5.06;66.08;99088.94;2959476;80;22432;-65
2021/04/06 17:11:47;;;;;;;5.28;2.72;;;;;;;4.91;65.95;99088.80;2949834;80;21160;-65
2021/04/06 17:15:50;;;;;;;3.98;3.40;;;;;;;4.76;66.58;99097.42;2922232;80;21169;-66
2021/04/06 17:19:54;;;;;;;5.65;3.15;;;;;;;4.60;67.35;99098.59;2871002;81;21153;-66
2021/04/06 17:23:57;;;;;;;5.37;3.58;;;;;;;4.47;67.70;99104.41;2827594;84;21136;-65
2021/04/06 17:28:00;;;;;;;6.05;3.87;;;;;;;4.34;68.27;99110.63;2869416;81;21682;-65
2021/04/06 17:32:04;;;;;;;3.90;3.20;;;;;;;4.23;68.73;99106.63;2897870;81;21594;-64
2021/04/06 17:36:09;;;;;;;4.92;3.67;;;;;;;4.10;69.35;99111.47;2871449;81;21153;-64
2021/04/06 17:40:17;;;;;;;5.85;3.72;;;;;;;4.02;69.84;99109.03;2945911;80;21133;-65
2021/04/06 17:44:21;;;;;;;6.50;3.92;;;;;;;3.93;70.29;99114.03;2934889;80;21646;-65
2021/04/06 17:48:24;;;;;;;8.85;4.62;;;;;;;3.83;70.71;99113.86;2875736;82;21176;-66
2021/04/06 17:52:28;;;;;;;5.37;2.92;;;;;;;3.77;71.05;99115.63;2937602;80;21152;-64
2021/04/06 17:56:33;;;;;;;4.10;3.25;;;;;;;3.69;71.48;99125.84;2935517;80;21566;-65
2021/04/06 18:00:43;;;;;;;11.35;5.97;;;;;;;3.63;71.77;99124.49;2889158;81;21697;-65
2021/04/06 18:04:46;;;;;;;5.90;4.37;;;;;;;3.61;71.99;99125.08;2885817;81;21586;-66
2021/04/06 18:08:50;;;;;;;10.13;6.42;;;;;;;3.60;72.08;99129.98;2927066;79;21141;-67
2021/04/06 18:12:54;;;;;;;10.08;6.60;;;;;;;3.60;72.03;99129.16;2877579;81;21153;-66
2021/04/06 18:16:57;;;;;;;8.85;5.85;;;;;;;3.55;72.16;99131.64;2951272;80;21141;-66
2021/04/06 18:21:00;;;;;;;8.73;5.28;;;;;;;3.52;72.30;99131.02;2932708;80;21193;-66
2021/04/06 18:25:06;;;;;;;8.95;7.12;;;;;;;3.49;72.51;99130.74;2943434;80;21117;-66
2021/04/06 18:29:09;;;;;;;7.25;5.85;;;;;;;3.50;72.54;99134.23;2950814;80;21156;-64
2021/04/06 18:33:22;;;;;;;14.03;6.60;;;;;;;3.46;72.77;99137.54;2951252;80;21133;-65
2021/04/06 18:37:25;;;;;;;17.23;7.20;;;;;;;3.44;72.73;99147.33;2941390;80;21152;-65
2021/04/06 18:41:30;;;;;;;12.05;6.90;;;;;;;3.42;72.52;99154.48;2938670;80;21495;-65
2021/04/06 18:45:34;;;;;;;8.83;6.08;;;;;;;3.40;72.46;99152.44;2935323;80;21101;-69
2021/04/06 18:49:39;;;;;;;11.30;4.97;;;;;;;3.40;72.29;99149.81;2952843;80;21585;-66
2021/04/06 18:53:43;;;;;;;10.28;5.62;;;;;;;3.40;71.97;99145.38;2903557;82;21189;-66
2021/04/06 18:57:47;;;;;;;6.10;4.60;;;;;;;3.37;71.96;99153.98;2953005;80;21578;-65
2021/04/06 19:01:50;;;;;;;8.90;4.70;;;;;;;3.28;71.97;99154.14;2919509;81;21159;-67
2021/04/06 19:05:53;;;;;;;7.53;4.90;;;;;;;3.20;72.04;99161.70;2926837;80;21128;-66
2021/04/06 19:09:56;;;;;;;13.55;6.60;;;;;;;3.15;72.18;99163.36;2951055;80;21153;-66
2021/04/06 19:14:00;;;;;;;9.60;5.67;;;;;;;3.11;72.40;99165.80;2874924;82;21583;-66
2021/04/06 19:18:10;;;;;;;7.80;5.20;;;;;;;3.06;72.73;99160.03;2932401;80;21165;-66
2021/04/06 19:22:13;;;;;;;10.23;5.78;;;;;;;3.05;73.32;99164.46;2928978;80;21206;-66
2021/04/06 19:26:17;;;;;;;14.07;6.85;;;;;;;3.12;73.73;99161.77;2861787;82;21183;-65
2021/04/06 19:30:21;;;;;;;9.60;6.40;;;;;;;3.27;73.83;99157.23;2902514;81;21498;-66
2021/04/06 19:34:24;;;;;;;11.08;7.40;;;;;;;3.38;73.48;99155.66;2908426;81;21200;-65
2021/04/06 19:38:27;;;;;;;10.88;6.42;;;;;;;3.46;72.79;99157.26;2918775;81;21156;-61
2021/04/06 19:42:32;;;;;;;11.63;5.72;;;;;;;3.42;72.23;99157.11;2891835;81;21161;-63
2021/04/06 19:46:35;;;;;;;11.55;6.90;;;;;;;3.29;72.04;99157.95;2875840;81;21150;-61
2021/04/06 19:50:43;;;;;;;13.05;7.50;;;;;;;3.19;72.02;99149.51;2913881;81;21161;-64